Gulf Pearl — C6UK9 — position and weather

sailwx.info

Track history (hours):
 
Tides and Currents Weather Stations Pressure Air Temp Water Temp Dewpoint Dewpoint Depression Visibility Wind Speed Wind Dir Waves Ship Positions

Gulf Pearl

Last reported at 2018-Apr-16 08:34 UTC. Time now 2018-Apr-21 21:10 UTC.
Position N 31°20' W 118°48'.

Length 228 m; draft 8.2 m.

Type: Tanker. MMSI: 311943000.

Date/timePositionNaut miles runAvg speedWind from/ knotsBaromVisibWave heightAir tempDewpointWater temp
2018-Apr-16 08:34N 31°20' W 118°48'110.4
2018-Apr-16 08:29N 31°21' W 118°48'510.6
2018-Apr-16 08:00N 31°25' W 118°52'510.5
2018-Apr-16 07:30N 31°29' W 118°55'610.4
2018-Apr-16 06:58N 31°34' W 118°59'810.7
2018-Apr-16 06:14N 31°40' W 119°04'310.9
2018-Apr-16 06:00N 31°43' W 119°06'511.0
2018-Apr-16 05:30N 31°47' W 119°09'1711.4
2018-Apr-16 04:02N 32°01' W 119°20'011.5
2018-Apr-16 04:00N 32°01' W 119°20'1510.7
2018-Apr-16 02:35N 32°14' W 119°30'110.8
2018-Apr-16 02:30N 32°15' W 119°31'510.6
2018-Apr-16 02:00N 32°19' W 119°35'710.9
2018-Apr-16 01:24N 32°24' W 119°39'411.0
2018-Apr-16 01:00N 32°28' W 119°42'1011.2
2018-Apr-16 00:07N 32°36' W 119°49'211.3
2018-Apr-15 23:56N 32°38' W 119°50'611.0
2018-Apr-15 23:22N 32°43' W 119°54'1211.1
2018-Apr-15 22:18N 32°53' W 120°01'310.7
2018-Apr-15 22:00N 32°56' W 120°03'610.7
2018-Apr-15 21:29N 33°00' W 120°07'810.7
2018-Apr-15 20:42N 33°07' W 120°13'210.2
2018-Apr-15 20:30N 33°09' W 120°14'510.1
2018-Apr-15 20:00N 33°13' W 120°18'610.4
2018-Apr-15 19:27N 33°18' W 120°22'510.5
2018-Apr-15 19:00N 33°22' W 120°25'510.5
2018-Apr-15 18:30N 33°26' W 120°28'510.5
2018-Apr-15 17:59N 33°30' W 120°32'510.6
2018-Apr-15 17:30N 33°35' W 120°36'510.7
2018-Apr-15 16:59N 33°39' W 120°39'611.1
2018-Apr-15 16:29N 33°44' W 120°43'511.0
2018-Apr-15 16:00N 33°48' W 120°46'610.9
2018-Apr-15 15:30N 33°53' W 120°50'613.0
2018-Apr-15 15:00N 33°58' W 120°54'714.9
2018-Apr-15 14:30N 34°04' W 120°59'713.6
2018-Apr-15 14:00N 34°10' W 121°04'713.6
2018-Apr-15 13:30N 34°16' W 121°09'713.6
2018-Apr-15 13:00N 34°21' W 121°13'713.8
2018-Apr-15 12:30N 34°27' W 121°18'713.8
2018-Apr-15 11:59N 34°33' W 121°23'713.2
2018-Apr-15 11:29N 34°38' W 121°27'713.7
2018-Apr-15 11:00N 34°44' W 121°32'713.7
2018-Apr-15 10:30N 34°50' W 121°36'713.5
2018-Apr-15 10:00N 34°56' W 121°40'713.4
2018-Apr-15 09:30N 35°01' W 121°44'713.4
2018-Apr-15 09:00N 35°07' W 121°48'713.4
2018-Apr-15 08:30N 35°13' W 121°52'713.7
2018-Apr-15 08:00N 35°19' W 121°56'713.7
2018-Apr-15 07:31N 35°25' W 122°01'713.8
2018-Apr-15 07:00N 35°31' W 122°05'713.9
2018-Apr-15 06:30N 35°37' W 122°09'713.6
2018-Apr-15 06:01N 35°43' W 122°13'713.7
2018-Apr-15 05:30N 35°48' W 122°18'713.5
2018-Apr-15 05:00N 35°54' W 122°23'713.4
2018-Apr-15 04:30N 35°60' W 122°27'714.3
2018-Apr-15 04:00N 36°06' W 122°32'713.5
2018-Apr-15 03:30N 36°11' W 122°37'713.7
2018-Apr-15 03:00N 36°17' W 122°41'713.3
2018-Apr-15 02:30N 36°23' W 122°43'713.9
2018-Apr-15 02:00N 36°30' W 122°43'713.9
2018-Apr-15 01:30N 36°37' W 122°43'713.9
2018-Apr-15 01:00N 36°44' W 122°44'714.3
2018-Apr-15 00:30N 36°52' W 122°44'714.3
2018-Apr-15 00:00N 36°59' W 122°44'714.6
2018-Apr-14 23:30N 37°06' W 122°43'714.8
2018-Apr-14 23:00N 37°13' W 122°43'714.6
2018-Apr-14 22:30N 37°21' W 122°44'714.5
2018-Apr-14 22:00N 37°28' W 122°44'714.4
2018-Apr-14 21:30N 37°35' W 122°43'713.7
2018-Apr-14 21:00N 37°42' W 122°42'510.8
2018-Apr-14 20:31N 37°46' W 122°38'714.7
2018-Apr-14 20:01N 37°49' W 122°29'510.3
2018-Apr-14 19:30N 37°54' W 122°26'612.2
2018-Apr-14 19:00N 37°60' W 122°25'612.0
2018-Apr-14 18:30N 38°03' W 122°19'3 6.5
2018-Apr-14 18:00N 38°04' W 122°15'3 6.1
2018-Apr-14 17:30N 38°03' W 122°11'3 0.1
2018-Apr-13 08:10N 38°02' W 122°07'0 0.6
2018-Apr-13 08:00N 38°02' W 122°07'1 1.2
2018-Apr-13 07:30N 38°02' W 122°08'4 6.3
2018-Apr-13 06:56N 38°04' W 122°12'511.3
2018-Apr-13 06:30N 38°03' W 122°18'510.0
2018-Apr-13 06:00N 38°01' W 122°24'611.3
2018-Apr-13 05:30N 37°56' W 122°27'510.7
2018-Apr-13 05:00N 37°51' W 122°24'4 7.1
2018-Apr-13 04:30N 37°49' W 122°28'713.0
2018-Apr-13 04:00N 37°46' W 122°36'611.2
2018-Apr-13 03:30N 37°43' W 122°42'4 8.9
2018-Apr-13 03:00N 37°41' W 122°46'5 9.3
2018-Apr-13 02:30N 37°38' W 122°51'4 8.4
2018-Apr-13 02:00N 37°36' W 122°56'4 9.1
2018-Apr-13 01:30N 37°33' W 123°01'5 9.4
2018-Apr-13 01:00N 37°31' W 123°06'5 8.4
2018-Apr-13 00:23N 37°29' W 123°12'4 7.6
2018-Apr-12 23:53N 37°27' W 123°16'17 3.9
2018-Apr-12 19:35N 37°36' W 123°35'0 3.1
2018-Apr-12 19:30N 37°36' W 123°34'2 2.9
2018-Apr-12 18:47N 37°36' W 123°32'1 2.7
2018-Apr-12 18:25N 37°35' W 123°31'2 2.9
2018-Apr-12 17:53N 37°35' W 123°29'1 3.1
2018-Apr-12 17:29N 37°34' W 123°27'2 3.0
2018-Apr-12 16:54N 37°34' W 123°25'1 3.2
2018-Apr-12 16:30N 37°33' W 123°24'2 3.7
2018-Apr-12 16:00N 37°32' W 123°22'2 3.1
2018-Apr-12 15:28N 37°32' W 123°20'2 2.9
2018-Apr-12 14:43N 37°31' W 123°17'1 3.1
2018-Apr-12 14:30N 37°30' W 123°17'2 3.1
2018-Apr-12 13:59N 37°30' W 123°15'1 2.8
2018-Apr-12 13:30N 37°29' W 123°13'1 2.6
2018-Apr-12 13:00N 37°28' W 123°12'3 5.4
2018-Apr-12 12:24N 37°25' W 123°11'3 7.3
2018-Apr-12 12:00N 37°22' W 123°11'4 7.2
2018-Apr-12 11:29N 37°19' W 123°11'98 6.9
2018-Apr-11 21:13N 35°49' W 122°23'2 7.7
2018-Apr-11 21:00N 35°47' W 122°22'4 7.7
2018-Apr-11 20:29N 35°44' W 122°19'4 8.0
2018-Apr-11 19:59N 35°41' W 122°16'5 9.4
2018-Apr-11 19:30N 35°37' W 122°13'5 9.5
2018-Apr-11 19:00N 35°33' W 122°10'6 9.7
2018-Apr-11 18:21N 35°28' W 122°05'4 9.7
2018-Apr-11 17:55N 35°25' W 122°02'5 9.7
2018-Apr-11 17:26N 35°21' W 121°59'4 9.7
2018-Apr-11 17:00N 35°17' W 121°56'5 9.5
2018-Apr-11 16:30N 35°14' W 121°53'5 9.3
2018-Apr-11 16:00N 35°10' W 121°49'5 9.2
2018-Apr-11 15:30N 35°06' W 121°46'5 9.2
2018-Apr-11 15:00N 35°02' W 121°43'510.5
2018-Apr-11 14:30N 34°58' W 121°39'611.2
2018-Apr-11 14:00N 34°53' W 121°35'611.4
2018-Apr-11 13:30N 34°49' W 121°31'611.4
2018-Apr-11 13:00N 34°44' W 121°27'611.6
2018-Apr-11 12:30N 34°39' W 121°23'611.4
2018-Apr-11 12:00N 34°35' W 121°19'611.5
2018-Apr-11 11:30N 34°30' W 121°15'611.4
2018-Apr-11 11:00N 34°25' W 121°11'611.4
2018-Apr-11 10:30N 34°21' W 121°07'611.5
2018-Apr-11 10:00N 34°16' W 121°03'611.4
2018-Apr-11 09:30N 34°11' W 120°59'611.3
2018-Apr-11 09:00N 34°07' W 120°55'611.2
2018-Apr-11 08:29N 34°02' W 120°51'611.2
2018-Apr-11 07:58N 33°57' W 120°47'511.2
2018-Apr-11 07:30N 33°53' W 120°44'610.8
2018-Apr-11 06:59N 33°48' W 120°40'510.8
2018-Apr-11 06:30N 33°44' W 120°36'611.0
2018-Apr-11 06:00N 33°39' W 120°33'611.8
2018-Apr-11 05:30N 33°35' W 120°29'713.1
2018-Apr-11 04:59N 33°29' W 120°24'612.8
2018-Apr-11 04:30N 33°24' W 120°20'612.2
2018-Apr-11 04:00N 33°19' W 120°15'612.5
2018-Apr-11 03:30N 33°14' W 120°11'611.5
2018-Apr-11 03:00N 33°09' W 120°07'611.2
2018-Apr-11 02:30N 33°05' W 120°03'611.1
2018-Apr-11 01:59N 32°60' W 119°59'511.2
2018-Apr-11 01:30N 32°56' W 119°55'611.3
2018-Apr-11 00:59N 32°51' W 119°52'511.4
2018-Apr-11 00:30N 32°46' W 119°48'611.7
2018-Apr-11 00:00N 32°41' W 119°44'611.9
2018-Apr-10 23:28N 32°36' W 119°39'612.0
2018-Apr-10 23:00N 32°32' W 119°36'612.2
2018-Apr-10 22:30N 32°27' W 119°31'612.1
2018-Apr-10 22:00N 32°22' W 119°27'1212.0
2018-Apr-10 21:02N 32°12' W 119°19'112.0
2018-Apr-10 20:59N 32°12' W 119°19'712.2
2018-Apr-10 20:26N 32°06' W 119°14'512.4
2018-Apr-10 20:00N 32°02' W 119°11'612.1
2018-Apr-10 19:30N 31°57' W 119°07'4 7.2
2018-Apr-10 18:59N 31°54' W 119°05'1 2.6
2018-Apr-10 18:30N 31°55' W 119°06'2 3.0
2018-Apr-10 17:57N 31°53' W 119°04'6 9.0
2018-Apr-10 17:19N 31°50' W 118°59'2 0.9
2018-Apr-10 15:02N 31°52' W 118°60'0 2.1
2018-Apr-10 15:00N 31°52' W 118°60'1 2.3
2018-Apr-10 14:30N 31°52' W 119°01'1 2.5
2018-Apr-10 14:00N 31°53' W 119°02'1 2.1
2018-Apr-10 13:29N 31°54' W 119°03'1 2.1
2018-Apr-10 13:00N 31°55' W 119°04'1 2.2
2018-Apr-10 12:30N 31°55' W 119°05'2 2.4
2018-Apr-10 11:48N 31°56' W 119°06'1 2.3
2018-Apr-10 11:11N 31°57' W 119°08'0 2.3
2018-Apr-10 11:00N 31°57' W 119°08'1 2.1
2018-Apr-10 10:25N 31°58' W 119°09'9 2.3
2018-Apr-10 06:43N 32°02' W 119°18'3 2.4
2018-Apr-10 05:25N 32°03' W 119°22'1 2.5
2018-Apr-10 05:00N 32°03' W 119°23'1 2.0
2018-Apr-10 04:30N 32°04' W 119°24'2 2.1
2018-Apr-10 03:47N 32°04' W 119°26'1 2.3
2018-Apr-10 03:28N 32°04' W 119°27'1 2.7
2018-Apr-10 03:00N 32°05' W 119°28'1 2.9
2018-Apr-10 02:30N 32°06' W 119°29'2 3.3
2018-Apr-10 02:00N 32°07' W 119°31'4 2.9
2018-Apr-10 00:46N 32°09' W 119°34'1 2.9
2018-Apr-10 00:18N 32°10' W 119°36'13 4.0
2018-Apr-09 21:09N 32°16' W 119°49'0 2.2
2018-Apr-09 20:59N 32°15' W 119°49'2 3.6
2018-Apr-09 20:30N 32°15' W 119°47'11 6.4
2018-Apr-09 18:52N 32°23' W 119°55'514.1
2018-Apr-09 18:30N 32°28' W 119°58'714.8
2018-Apr-09 18:00N 32°34' W 120°02'714.9
2018-Apr-09 17:30N 32°41' W 120°06'815.1
2018-Apr-09 17:00N 32°47' W 120°11'714.8
2018-Apr-09 16:30N 32°54' W 120°15'814.9
2018-Apr-09 16:00N 33°00' W 120°20'814.9
2018-Apr-09 15:29N 33°07' W 120°24'715.3
2018-Apr-09 15:00N 33°13' W 120°28'815.1
2018-Apr-09 14:30N 33°20' W 120°33'815.3
2018-Apr-09 14:00N 33°26' W 120°38'815.1
2018-Apr-09 13:30N 33°33' W 120°42'714.8
2018-Apr-09 13:00N 33°39' W 120°47'714.7
2018-Apr-09 12:30N 33°45' W 120°51'714.7
2018-Apr-09 12:00N 33°51' W 120°56'714.7
2018-Apr-09 11:30N 33°58' W 121°00'814.9
2018-Apr-09 11:00N 34°05' W 121°04'714.9
2018-Apr-09 10:30N 34°11' W 121°09'714.7
2018-Apr-09 10:00N 34°18' W 121°13'714.4
2018-Apr-09 09:30N 34°24' W 121°18'714.3
2018-Apr-09 09:00N 34°30' W 121°22'714.6
2018-Apr-09 08:30N 34°36' W 121°26'714.7
2018-Apr-09 08:00N 34°43' W 121°31'814.9
2018-Apr-09 07:30N 34°49' W 121°36'715.0
2018-Apr-09 07:00N 34°55' W 121°40'815.2
2018-Apr-09 06:30N 35°02' W 121°46'815.0
2018-Apr-09 05:59N 35°08' W 121°51'714.8
2018-Apr-09 05:30N 35°14' W 121°56'714.8
2018-Apr-09 05:00N 35°20' W 122°00'714.7
2018-Apr-09 04:30N 35°26' W 122°05'714.6
2018-Apr-09 04:00N 35°33' W 122°10'814.9
2018-Apr-09 03:30N 35°39' W 122°15'9214.4
2018-Apr-08 21:04N 36°59' W 123°11'114.9
2018-Apr-08 21:00N 37°00' W 123°11'814.9
2018-Apr-08 20:30N 37°08' W 123°11'714.1
2018-Apr-08 20:00N 37°15' W 123°11'714.0
2018-Apr-08 19:30N 37°22' W 123°11'713.8
2018-Apr-08 19:00N 37°29' W 123°11'612.2
2018-Apr-08 18:30N 37°33' W 123°05'612.2
2018-Apr-08 18:00N 37°37' W 122°59'612.4
2018-Apr-08 17:30N 37°40' W 122°52'611.9
2018-Apr-08 17:01N 37°43' W 122°46'611.2
2018-Apr-08 16:30N 37°45' W 122°39'4 8.2
2018-Apr-08 16:00N 37°47' W 122°35'714.5
2018-Apr-08 15:31N 37°50' W 122°27'611.3
2018-Apr-08 15:00N 37°46' W 122°21'0 0.8
2018-Apr-08 14:28N 37°46' W 122°21'0 0.3
2018-Apr-08 13:58N 37°46' W 122°21'0 0.1
2018-Apr-08 13:28N 37°46' W 122°21'0 0.0
2018-Apr-08 12:58N 37°46' W 122°21'0 0.1
2018-Apr-08 12:28N 37°46' W 122°21'0 0.0
2018-Apr-08 11:58N 37°46' W 122°21'0 0.0
2018-Apr-08 11:28N 37°46' W 122°21'0 0.0
2018-Apr-08 10:58N 37°46' W 122°21'0 0.0
2018-Apr-08 10:28N 37°46' W 122°21'0 0.0
2018-Apr-08 09:58N 37°46' W 122°21'0 0.0
2018-Apr-08 09:28N 37°46' W 122°21'0 0.0
2018-Apr-08 08:58N 37°46' W 122°21'0 0.2
2018-Apr-08 08:28N 37°46' W 122°21'0 0.2
2018-Apr-08 07:58N 37°46' W 122°21'0 0.2
2018-Apr-08 07:28N 37°46' W 122°21'0 0.0
2018-Apr-08 06:58N 37°46' W 122°21'0 0.1
2018-Apr-08 06:28N 37°46' W 122°21'0 0.0
2018-Apr-08 05:58N 37°46' W 122°21'0 0.0
2018-Apr-08 05:28N 37°46' W 122°21'0 0.0
2018-Apr-08 04:58N 37°46' W 122°21'0 0.1
2018-Apr-08 04:28N 37°46' W 122°21'0 0.1
2018-Apr-08 03:58N 37°46' W 122°21'0 0.2
2018-Apr-08 03:28N 37°46' W 122°21'0 0.3
2018-Apr-08 02:59N 37°46' W 122°21'3 7.1
2018-Apr-08 02:31N 37°49' W 122°23'713.1
2018-Apr-08 02:00N 37°55' W 122°27'611.9
2018-Apr-08 01:30N 38°00' W 122°24'612.0
2018-Apr-08 01:00N 38°03' W 122°18'611.8
2018-Apr-08 00:30N 38°02' W 122°10'2 0.1
2018-Apr-06 15:15N 38°02' W 122°07'0 0.0
2018-Apr-06 13:36N 38°02' W 122°07'0 0.0
2018-Apr-06 13:06N 38°02' W 122°07'0 0.0
2018-Apr-06 13:00N 38°02' W 122°07'0 0.7
2018-Apr-06 12:30N 38°02' W 122°08'2 4.9
2018-Apr-06 12:00N 38°03' W 122°11'5 9.5
2018-Apr-06 11:30N 38°04' W 122°17'5 9.5
2018-Apr-06 11:00N 38°02' W 122°22'510.5
2018-Apr-06 10:30N 37°58' W 122°27'510.8
2018-Apr-06 10:00N 37°53' W 122°25'3 6.4
2018-Apr-06 09:30N 37°50' W 122°28'611.9
2018-Apr-06 09:00N 37°47' W 122°34'  
Track history (hours):
 
Tides and Currents Weather Stations Pressure Air Temp Water Temp Dewpoint Dewpoint Depression Visibility Wind Speed Wind Dir Waves Ship Positions

Gulf Pearl

Last reported at 2018-Apr-16 08:34 UTC. Time now 2018-Apr-21 21:10 UTC.
Position N 31°20' W 118°48'.

Length 228 m; draft 8.2 m.

Type: Tanker. MMSI: 311943000.

Date/timePositionNaut miles runAvg speedWind from/ knotsBaromVisibWave heightAir tempDewpointWater temp
2018-Apr-16 08:34N 31°20' W 118°48'110.4
2018-Apr-16 08:29N 31°21' W 118°48'510.6
2018-Apr-16 08:00N 31°25' W 118°52'510.5
2018-Apr-16 07:30N 31°29' W 118°55'610.4
2018-Apr-16 06:58N 31°34' W 118°59'810.7
2018-Apr-16 06:14N 31°40' W 119°04'310.9
2018-Apr-16 06:00N 31°43' W 119°06'511.0
2018-Apr-16 05:30N 31°47' W 119°09'1711.4
2018-Apr-16 04:02N 32°01' W 119°20'011.5
2018-Apr-16 04:00N 32°01' W 119°20'1510.7
2018-Apr-16 02:35N 32°14' W 119°30'110.8
2018-Apr-16 02:30N 32°15' W 119°31'510.6
2018-Apr-16 02:00N 32°19' W 119°35'710.9
2018-Apr-16 01:24N 32°24' W 119°39'411.0
2018-Apr-16 01:00N 32°28' W 119°42'1011.2
2018-Apr-16 00:07N 32°36' W 119°49'211.3
2018-Apr-15 23:56N 32°38' W 119°50'611.0
2018-Apr-15 23:22N 32°43' W 119°54'1211.1
2018-Apr-15 22:18N 32°53' W 120°01'310.7
2018-Apr-15 22:00N 32°56' W 120°03'610.7
2018-Apr-15 21:29N 33°00' W 120°07'810.7
2018-Apr-15 20:42N 33°07' W 120°13'210.2
2018-Apr-15 20:30N 33°09' W 120°14'510.1
2018-Apr-15 20:00N 33°13' W 120°18'610.4
2018-Apr-15 19:27N 33°18' W 120°22'510.5
2018-Apr-15 19:00N 33°22' W 120°25'510.5
2018-Apr-15 18:30N 33°26' W 120°28'510.5
2018-Apr-15 17:59N 33°30' W 120°32'510.6
2018-Apr-15 17:30N 33°35' W 120°36'510.7
2018-Apr-15 16:59N 33°39' W 120°39'611.1
2018-Apr-15 16:29N 33°44' W 120°43'511.0
2018-Apr-15 16:00N 33°48' W 120°46'610.9
2018-Apr-15 15:30N 33°53' W 120°50'613.0
2018-Apr-15 15:00N 33°58' W 120°54'714.9
2018-Apr-15 14:30N 34°04' W 120°59'713.6
2018-Apr-15 14:00N 34°10' W 121°04'713.6
2018-Apr-15 13:30N 34°16' W 121°09'713.6
2018-Apr-15 13:00N 34°21' W 121°13'713.8
2018-Apr-15 12:30N 34°27' W 121°18'713.8
2018-Apr-15 11:59N 34°33' W 121°23'713.2
2018-Apr-15 11:29N 34°38' W 121°27'713.7
2018-Apr-15 11:00N 34°44' W 121°32'713.7
2018-Apr-15 10:30N 34°50' W 121°36'713.5
2018-Apr-15 10:00N 34°56' W 121°40'713.4
2018-Apr-15 09:30N 35°01' W 121°44'713.4
2018-Apr-15 09:00N 35°07' W 121°48'713.4
2018-Apr-15 08:30N 35°13' W 121°52'713.7
2018-Apr-15 08:00N 35°19' W 121°56'713.7
2018-Apr-15 07:31N 35°25' W 122°01'713.8
2018-Apr-15 07:00N 35°31' W 122°05'713.9
2018-Apr-15 06:30N 35°37' W 122°09'713.6
2018-Apr-15 06:01N 35°43' W 122°13'713.7
2018-Apr-15 05:30N 35°48' W 122°18'713.5
2018-Apr-15 05:00N 35°54' W 122°23'713.4
2018-Apr-15 04:30N 35°60' W 122°27'714.3
2018-Apr-15 04:00N 36°06' W 122°32'713.5
2018-Apr-15 03:30N 36°11' W 122°37'713.7
2018-Apr-15 03:00N 36°17' W 122°41'713.3
2018-Apr-15 02:30N 36°23' W 122°43'713.9
2018-Apr-15 02:00N 36°30' W 122°43'713.9
2018-Apr-15 01:30N 36°37' W 122°43'713.9
2018-Apr-15 01:00N 36°44' W 122°44'714.3
2018-Apr-15 00:30N 36°52' W 122°44'714.3
2018-Apr-15 00:00N 36°59' W 122°44'714.6
2018-Apr-14 23:30N 37°06' W 122°43'714.8
2018-Apr-14 23:00N 37°13' W 122°43'714.6
2018-Apr-14 22:30N 37°21' W 122°44'714.5
2018-Apr-14 22:00N 37°28' W 122°44'714.4
2018-Apr-14 21:30N 37°35' W 122°43'713.7
2018-Apr-14 21:00N 37°42' W 122°42'510.8
2018-Apr-14 20:31N 37°46' W 122°38'714.7
2018-Apr-14 20:01N 37°49' W 122°29'510.3
2018-Apr-14 19:30N 37°54' W 122°26'612.2
2018-Apr-14 19:00N 37°60' W 122°25'612.0
2018-Apr-14 18:30N 38°03' W 122°19'3 6.5
2018-Apr-14 18:00N 38°04' W 122°15'3 6.1
2018-Apr-14 17:30N 38°03' W 122°11'3 0.1
2018-Apr-13 08:10N 38°02' W 122°07'0 0.6
2018-Apr-13 08:00N 38°02' W 122°07'1 1.2
2018-Apr-13 07:30N 38°02' W 122°08'4 6.3
2018-Apr-13 06:56N 38°04' W 122°12'511.3
2018-Apr-13 06:30N 38°03' W 122°18'510.0
2018-Apr-13 06:00N 38°01' W 122°24'611.3
2018-Apr-13 05:30N 37°56' W 122°27'510.7
2018-Apr-13 05:00N 37°51' W 122°24'4 7.1
2018-Apr-13 04:30N 37°49' W 122°28'713.0
2018-Apr-13 04:00N 37°46' W 122°36'611.2
2018-Apr-13 03:30N 37°43' W 122°42'4 8.9
2018-Apr-13 03:00N 37°41' W 122°46'5 9.3
2018-Apr-13 02:30N 37°38' W 122°51'4 8.4
2018-Apr-13 02:00N 37°36' W 122°56'4 9.1
2018-Apr-13 01:30N 37°33' W 123°01'5 9.4
2018-Apr-13 01:00N 37°31' W 123°06'5 8.4
2018-Apr-13 00:23N 37°29' W 123°12'4 7.6
2018-Apr-12 23:53N 37°27' W 123°16'17 3.9
2018-Apr-12 19:35N 37°36' W 123°35'0 3.1
2018-Apr-12 19:30N 37°36' W 123°34'2 2.9
2018-Apr-12 18:47N 37°36' W 123°32'1 2.7
2018-Apr-12 18:25N 37°35' W 123°31'2 2.9
2018-Apr-12 17:53N 37°35' W 123°29'1 3.1
2018-Apr-12 17:29N 37°34' W 123°27'2 3.0
2018-Apr-12 16:54N 37°34' W 123°25'1 3.2
2018-Apr-12 16:30N 37°33' W 123°24'2 3.7
2018-Apr-12 16:00N 37°32' W 123°22'2 3.1
2018-Apr-12 15:28N 37°32' W 123°20'2 2.9
2018-Apr-12 14:43N 37°31' W 123°17'1 3.1
2018-Apr-12 14:30N 37°30' W 123°17'2 3.1
2018-Apr-12 13:59N 37°30' W 123°15'1 2.8
2018-Apr-12 13:30N 37°29' W 123°13'1 2.6
2018-Apr-12 13:00N 37°28' W 123°12'3 5.4
2018-Apr-12 12:24N 37°25' W 123°11'3 7.3
2018-Apr-12 12:00N 37°22' W 123°11'4 7.2
2018-Apr-12 11:29N 37°19' W 123°11'98 6.9
2018-Apr-11 21:13N 35°49' W 122°23'2 7.7
2018-Apr-11 21:00N 35°47' W 122°22'4 7.7
2018-Apr-11 20:29N 35°44' W 122°19'4 8.0
2018-Apr-11 19:59N 35°41' W 122°16'5 9.4
2018-Apr-11 19:30N 35°37' W 122°13'5 9.5
2018-Apr-11 19:00N 35°33' W 122°10'6 9.7
2018-Apr-11 18:21N 35°28' W 122°05'4 9.7
2018-Apr-11 17:55N 35°25' W 122°02'5 9.7
2018-Apr-11 17:26N 35°21' W 121°59'4 9.7
2018-Apr-11 17:00N 35°17' W 121°56'5 9.5
2018-Apr-11 16:30N 35°14' W 121°53'5 9.3
2018-Apr-11 16:00N 35°10' W 121°49'5 9.2
2018-Apr-11 15:30N 35°06' W 121°46'5 9.2
2018-Apr-11 15:00N 35°02' W 121°43'510.5
2018-Apr-11 14:30N 34°58' W 121°39'611.2
2018-Apr-11 14:00N 34°53' W 121°35'611.4
2018-Apr-11 13:30N 34°49' W 121°31'611.4
2018-Apr-11 13:00N 34°44' W 121°27'611.6
2018-Apr-11 12:30N 34°39' W 121°23'611.4
2018-Apr-11 12:00N 34°35' W 121°19'611.5
2018-Apr-11 11:30N 34°30' W 121°15'611.4
2018-Apr-11 11:00N 34°25' W 121°11'611.4
2018-Apr-11 10:30N 34°21' W 121°07'611.5
2018-Apr-11 10:00N 34°16' W 121°03'611.4
2018-Apr-11 09:30N 34°11' W 120°59'611.3
2018-Apr-11 09:00N 34°07' W 120°55'611.2
2018-Apr-11 08:29N 34°02' W 120°51'611.2
2018-Apr-11 07:58N 33°57' W 120°47'511.2
2018-Apr-11 07:30N 33°53' W 120°44'610.8
2018-Apr-11 06:59N 33°48' W 120°40'510.8
2018-Apr-11 06:30N 33°44' W 120°36'611.0
2018-Apr-11 06:00N 33°39' W 120°33'611.8
2018-Apr-11 05:30N 33°35' W 120°29'713.1
2018-Apr-11 04:59N 33°29' W 120°24'612.8
2018-Apr-11 04:30N 33°24' W 120°20'612.2
2018-Apr-11 04:00N 33°19' W 120°15'612.5
2018-Apr-11 03:30N 33°14' W 120°11'611.5
2018-Apr-11 03:00N 33°09' W 120°07'611.2
2018-Apr-11 02:30N 33°05' W 120°03'611.1
2018-Apr-11 01:59N 32°60' W 119°59'511.2
2018-Apr-11 01:30N 32°56' W 119°55'611.3
2018-Apr-11 00:59N 32°51' W 119°52'511.4
2018-Apr-11 00:30N 32°46' W 119°48'611.7
2018-Apr-11 00:00N 32°41' W 119°44'611.9
2018-Apr-10 23:28N 32°36' W 119°39'612.0
2018-Apr-10 23:00N 32°32' W 119°36'612.2
2018-Apr-10 22:30N 32°27' W 119°31'612.1
2018-Apr-10 22:00N 32°22' W 119°27'1212.0
2018-Apr-10 21:02N 32°12' W 119°19'112.0
2018-Apr-10 20:59N 32°12' W 119°19'712.2
2018-Apr-10 20:26N 32°06' W 119°14'512.4
2018-Apr-10 20:00N 32°02' W 119°11'612.1
2018-Apr-10 19:30N 31°57' W 119°07'4 7.2
2018-Apr-10 18:59N 31°54' W 119°05'1 2.6
2018-Apr-10 18:30N 31°55' W 119°06'2 3.0
2018-Apr-10 17:57N 31°53' W 119°04'6 9.0
2018-Apr-10 17:19N 31°50' W 118°59'2 0.9
2018-Apr-10 15:02N 31°52' W 118°60'0 2.1
2018-Apr-10 15:00N 31°52' W 118°60'1 2.3
2018-Apr-10 14:30N 31°52' W 119°01'1 2.5
2018-Apr-10 14:00N 31°53' W 119°02'1 2.1
2018-Apr-10 13:29N 31°54' W 119°03'1 2.1
2018-Apr-10 13:00N 31°55' W 119°04'1 2.2
2018-Apr-10 12:30N 31°55' W 119°05'2 2.4
2018-Apr-10 11:48N 31°56' W 119°06'1 2.3
2018-Apr-10 11:11N 31°57' W 119°08'0 2.3
2018-Apr-10 11:00N 31°57' W 119°08'1 2.1
2018-Apr-10 10:25N 31°58' W 119°09'9 2.3
2018-Apr-10 06:43N 32°02' W 119°18'3 2.4
2018-Apr-10 05:25N 32°03' W 119°22'1 2.5
2018-Apr-10 05:00N 32°03' W 119°23'1 2.0
2018-Apr-10 04:30N 32°04' W 119°24'2 2.1
2018-Apr-10 03:47N 32°04' W 119°26'1 2.3
2018-Apr-10 03:28N 32°04' W 119°27'1 2.7
2018-Apr-10 03:00N 32°05' W 119°28'1 2.9
2018-Apr-10 02:30N 32°06' W 119°29'2 3.3
2018-Apr-10 02:00N 32°07' W 119°31'4 2.9
2018-Apr-10 00:46N 32°09' W 119°34'1 2.9
2018-Apr-10 00:18N 32°10' W 119°36'13 4.0
2018-Apr-09 21:09N 32°16' W 119°49'0 2.2
2018-Apr-09 20:59N 32°15' W 119°49'2 3.6
2018-Apr-09 20:30N 32°15' W 119°47'11 6.4
2018-Apr-09 18:52N 32°23' W 119°55'514.1
2018-Apr-09 18:30N 32°28' W 119°58'714.8
2018-Apr-09 18:00N 32°34' W 120°02'714.9
2018-Apr-09 17:30N 32°41' W 120°06'815.1
2018-Apr-09 17:00N 32°47' W 120°11'714.8
2018-Apr-09 16:30N 32°54' W 120°15'814.9
2018-Apr-09 16:00N 33°00' W 120°20'814.9
2018-Apr-09 15:29N 33°07' W 120°24'715.3
2018-Apr-09 15:00N 33°13' W 120°28'815.1
2018-Apr-09 14:30N 33°20' W 120°33'815.3
2018-Apr-09 14:00N 33°26' W 120°38'815.1
2018-Apr-09 13:30N 33°33' W 120°42'714.8
2018-Apr-09 13:00N 33°39' W 120°47'714.7
2018-Apr-09 12:30N 33°45' W 120°51'714.7
2018-Apr-09 12:00N 33°51' W 120°56'714.7
2018-Apr-09 11:30N 33°58' W 121°00'814.9
2018-Apr-09 11:00N 34°05' W 121°04'714.9
2018-Apr-09 10:30N 34°11' W 121°09'714.7
2018-Apr-09 10:00N 34°18' W 121°13'714.4
2018-Apr-09 09:30N 34°24' W 121°18'714.3
2018-Apr-09 09:00N 34°30' W 121°22'714.6
2018-Apr-09 08:30N 34°36' W 121°26'714.7
2018-Apr-09 08:00N 34°43' W 121°31'814.9
2018-Apr-09 07:30N 34°49' W 121°36'715.0
2018-Apr-09 07:00N 34°55' W 121°40'815.2
2018-Apr-09 06:30N 35°02' W 121°46'815.0
2018-Apr-09 05:59N 35°08' W 121°51'714.8
2018-Apr-09 05:30N 35°14' W 121°56'714.8
2018-Apr-09 05:00N 35°20' W 122°00'714.7
2018-Apr-09 04:30N 35°26' W 122°05'714.6
2018-Apr-09 04:00N 35°33' W 122°10'814.9
2018-Apr-09 03:30N 35°39' W 122°15'9214.4
2018-Apr-08 21:04N 36°59' W 123°11'114.9
2018-Apr-08 21:00N 37°00' W 123°11'814.9
2018-Apr-08 20:30N 37°08' W 123°11'714.1
2018-Apr-08 20:00N 37°15' W 123°11'714.0
2018-Apr-08 19:30N 37°22' W 123°11'713.8
2018-Apr-08 19:00N 37°29' W 123°11'612.2
2018-Apr-08 18:30N 37°33' W 123°05'612.2
2018-Apr-08 18:00N 37°37' W 122°59'612.4
2018-Apr-08 17:30N 37°40' W 122°52'611.9
2018-Apr-08 17:01N 37°43' W 122°46'611.2
2018-Apr-08 16:30N 37°45' W 122°39'4 8.2
2018-Apr-08 16:00N 37°47' W 122°35'714.5
2018-Apr-08 15:31N 37°50' W 122°27'611.3
2018-Apr-08 15:00N 37°46' W 122°21'0 0.8
2018-Apr-08 14:28N 37°46' W 122°21'0 0.3
2018-Apr-08 13:58N 37°46' W 122°21'0 0.1
2018-Apr-08 13:28N 37°46' W 122°21'0 0.0
2018-Apr-08 12:58N 37°46' W 122°21'0 0.1
2018-Apr-08 12:28N 37°46' W 122°21'0 0.0
2018-Apr-08 11:58N 37°46' W 122°21'0 0.0
2018-Apr-08 11:28N 37°46' W 122°21'0 0.0
2018-Apr-08 10:58N 37°46' W 122°21'0 0.0
2018-Apr-08 10:28N 37°46' W 122°21'0 0.0
2018-Apr-08 09:58N 37°46' W 122°21'0 0.0
2018-Apr-08 09:28N 37°46' W 122°21'0 0.0
2018-Apr-08 08:58N 37°46' W 122°21'0 0.2
2018-Apr-08 08:28N 37°46' W 122°21'0 0.2
2018-Apr-08 07:58N 37°46' W 122°21'0 0.2
2018-Apr-08 07:28N 37°46' W 122°21'0 0.0
2018-Apr-08 06:58N 37°46' W 122°21'0 0.1
2018-Apr-08 06:28N 37°46' W 122°21'0 0.0
2018-Apr-08 05:58N 37°46' W 122°21'0 0.0
2018-Apr-08 05:28N 37°46' W 122°21'0 0.0
2018-Apr-08 04:58N 37°46' W 122°21'0 0.1
2018-Apr-08 04:28N 37°46' W 122°21'0 0.1
2018-Apr-08 03:58N 37°46' W 122°21'0 0.2
2018-Apr-08 03:28N 37°46' W 122°21'0 0.3
2018-Apr-08 02:59N 37°46' W 122°21'3 7.1
2018-Apr-08 02:31N 37°49' W 122°23'713.1
2018-Apr-08 02:00N 37°55' W 122°27'611.9
2018-Apr-08 01:30N 38°00' W 122°24'612.0
2018-Apr-08 01:00N 38°03' W 122°18'611.8
2018-Apr-08 00:30N 38°02' W 122°10'2 0.1
2018-Apr-06 15:15N 38°02' W 122°07'0 0.0
2018-Apr-06 13:36N 38°02' W 122°07'0 0.0
2018-Apr-06 13:06N 38°02' W 122°07'0 0.0
2018-Apr-06 13:00N 38°02' W 122°07'0 0.7
2018-Apr-06 12:30N 38°02' W 122°08'2 4.9
2018-Apr-06 12:00N 38°03' W 122°11'5 9.5
2018-Apr-06 11:30N 38°04' W 122°17'5 9.5
2018-Apr-06 11:00N 38°02' W 122°22'510.5
2018-Apr-06 10:30N 37°58' W 122°27'510.8
2018-Apr-06 10:00N 37°53' W 122°25'3 6.4
2018-Apr-06 09:30N 37°50' W 122°28'611.9
2018-Apr-06 09:00N 37°47' W 122°34'  

Dump ship's entire track history